sensor_id;sensor_type;location;lat;lon;timestamp;pressure;altitude;pressure_sealevel;temperature;humidity
85317;BME280;75721;52.330;9.772;2024-01-30T00:01:39;102427.63;;;4.00;97.94
85317;BME280;75721;52.330;9.772;2024-01-30T00:04:04;102440.72;;;3.94;98.60
85317;BME280;75721;52.330;9.772;2024-01-30T00:06:29;102431.34;;;3.95;98.43
85317;BME280;75721;52.330;9.772;2024-01-30T00:08:54;102426.41;;;3.92;97.63
85317;BME280;75721;52.330;9.772;2024-01-30T00:11:20;102426.47;;;3.87;98.49
85317;BME280;75721;52.330;9.772;2024-01-30T00:13:46;102433.28;;;3.76;98.91
85317;BME280;75721;52.330;9.772;2024-01-30T00:16:21;102434.72;;;3.74;99.01
85317;BME280;75721;52.330;9.772;2024-01-30T00:18:47;102428.97;;;3.70;99.15
85317;BME280;75721;52.330;9.772;2024-01-30T00:21:12;102427.31;;;3.69;99.17
85317;BME280;75721;52.330;9.772;2024-01-30T00:23:38;102427.31;;;3.69;99.72
85317;BME280;75721;52.330;9.772;2024-01-30T00:26:03;102424.19;;;3.76;98.90
85317;BME280;75721;52.330;9.772;2024-01-30T00:28:30;102418.59;;;3.94;99.05
85317;BME280;75721;52.330;9.772;2024-01-30T00:30:55;102426.25;;;3.84;99.52
85317;BME280;75721;52.330;9.772;2024-01-30T00:33:20;102414.91;;;3.85;98.94
85317;BME280;75721;52.330;9.772;2024-01-30T00:35:46;102410.13;;;4.04;99.24
85317;BME280;75721;52.330;9.772;2024-01-30T00:38:12;102414.94;;;3.99;98.97
85317;BME280;75721;52.330;9.772;2024-01-30T00:40:37;102407.97;;;4.01;98.98
85317;BME280;75721;52.330;9.772;2024-01-30T00:43:02;102408.84;;;4.15;98.53
85317;BME280;75721;52.330;9.772;2024-01-30T00:45:28;102407.34;;;3.91;98.79
85317;BME280;75721;52.330;9.772;2024-01-30T00:47:53;102408.63;;;3.80;99.13
85317;BME280;75721;52.330;9.772;2024-01-30T00:50:18;102415.97;;;3.71;99.77
85317;BME280;75721;52.330;9.772;2024-01-30T00:52:43;102409.69;;;3.65;99.42
85317;BME280;75721;52.330;9.772;2024-01-30T00:55:10;102416.19;;;3.74;99.40
85317;BME280;75721;52.330;9.772;2024-01-30T00:57:36;102411.16;;;3.76;99.24
85317;BME280;75721;52.330;9.772;2024-01-30T01:00:02;102413.56;;;3.83;99.61
85317;BME280;75721;52.330;9.772;2024-01-30T01:02:28;102418.16;;;3.87;100.00
85317;BME280;75721;52.330;9.772;2024-01-30T01:04:53;102413.50;;;4.01;99.57
85317;BME280;75721;52.330;9.772;2024-01-30T01:07:19;102416.19;;;4.06;99.25
85317;BME280;75721;52.330;9.772;2024-01-30T01:09:44;102420.09;;;4.05;99.11
85317;BME280;75721;52.330;9.772;2024-01-30T01:12:09;102426.66;;;4.09;98.67
85317;BME280;75721;52.330;9.772;2024-01-30T01:14:34;102431.41;;;4.22;98.44
85317;BME280;75721;52.330;9.772;2024-01-30T01:17:01;102428.59;;;4.54;97.53
85317;BME280;75721;52.330;9.772;2024-01-30T01:19:26;102432.06;;;4.46;97.06
85317;BME280;75721;52.330;9.772;2024-01-30T01:21:51;102431.03;;;4.42;96.99
85317;BME280;75721;52.330;9.772;2024-01-30T01:24:17;102436.69;;;4.37;98.02
85317;BME280;75721;52.330;9.772;2024-01-30T01:26:42;102433.38;;;4.35;98.30
85317;BME280;75721;52.330;9.772;2024-01-30T01:29:07;102436.34;;;4.25;98.55
85317;BME280;75721;52.330;9.772;2024-01-30T01:31:37;102431.47;;;4.04;98.19
85317;BME280;75721;52.330;9.772;2024-01-30T01:34:09;102425.00;;;4.08;98.71
85317;BME280;75721;52.330;9.772;2024-01-30T01:36:35;102424.13;;;3.94;99.38
85317;BME280;75721;52.330;9.772;2024-01-30T01:39:00;102412.91;;;4.04;99.20
85317;BME280;75721;52.330;9.772;2024-01-30T01:41:30;102418.44;;;4.04;98.81
85317;BME280;75721;52.330;9.772;2024-01-30T01:43:55;102410.66;;;4.06;100.00
85317;BME280;75721;52.330;9.772;2024-01-30T01:46:20;102409.09;;;4.00;99.06
85317;BME280;75721;52.330;9.772;2024-01-30T01:48:46;102415.94;;;3.89;98.59
85317;BME280;75721;52.330;9.772;2024-01-30T01:51:12;102407.75;;;3.84;99.39
85317;BME280;75721;52.330;9.772;2024-01-30T01:53:38;102417.38;;;3.87;99.58
85317;BME280;75721;52.330;9.772;2024-01-30T01:56:03;102420.94;;;3.87;100.00
85317;BME280;75721;52.330;9.772;2024-01-30T01:58:30;102415.16;;;4.02;100.00
85317;BME280;75721;52.330;9.772;2024-01-30T02:00:56;102403.81;;;4.04;99.89
85317;BME280;75721;52.330;9.772;2024-01-30T02:03:21;102402.28;;;4.11;99.18
85317;BME280;75721;52.330;9.772;2024-01-30T02:05:47;102401.84;;;4.04;99.05
85317;BME280;75721;52.330;9.772;2024-01-30T02:08:12;102408.19;;;4.05;99.88
85317;BME280;75721;52.330;9.772;2024-01-30T02:10:38;102392.66;;;4.22;99.29
85317;BME280;75721;52.330;9.772;2024-01-30T02:15:31;102380.34;;;4.15;99.34
85317;BME280;75721;52.330;9.772;2024-01-30T02:17:56;102389.28;;;4.25;99.40
85317;BME280;75721;52.330;9.772;2024-01-30T02:20:23;102388.00;;;4.50;98.74
85317;BME280;75721;52.330;9.772;2024-01-30T02:22:51;102382.84;;;4.43;98.06
85317;BME280;75721;52.330;9.772;2024-01-30T02:25:17;102375.06;;;4.32;99.33
85317;BME280;75721;52.330;9.772;2024-01-30T02:27:45;102376.88;;;4.36;99.04
85317;BME280;75721;52.330;9.772;2024-01-30T02:30:10;102375.78;;;4.37;98.85
85317;BME280;75721;52.330;9.772;2024-01-30T02:32:36;102376.88;;;4.36;98.89
85317;BME280;75721;52.330;9.772;2024-01-30T02:35:01;102374.66;;;4.38;98.82
85317;BME280;75721;52.330;9.772;2024-01-30T02:37:27;102374.22;;;4.31;99.26
85317;BME280;75721;52.330;9.772;2024-01-30T02:39:52;102369.00;;;4.30;99.26
85317;BME280;75721;52.330;9.772;2024-01-30T02:42:17;102369.19;;;4.33;99.19
85317;BME280;75721;52.330;9.772;2024-01-30T02:44:42;102360.28;;;4.36;99.60
85317;BME280;75721;52.330;9.772;2024-01-30T02:47:08;102355.16;;;4.43;98.71
85317;BME280;75721;52.330;9.772;2024-01-30T02:49:33;102367.38;;;4.42;98.30
85317;BME280;75721;52.330;9.772;2024-01-30T02:51:58;102352.91;;;4.45;98.25
85317;BME280;75721;52.330;9.772;2024-01-30T02:54:24;102344.31;;;4.47;98.19
85317;BME280;75721;52.330;9.772;2024-01-30T02:56:49;102352.63;;;4.47;98.62
85317;BME280;75721;52.330;9.772;2024-01-30T02:59:14;102351.91;;;4.41;98.25
85317;BME280;75721;52.330;9.772;2024-01-30T03:01:43;102347.69;;;4.30;98.60
85317;BME280;75721;52.330;9.772;2024-01-30T03:04:09;102341.00;;;4.31;99.49
85317;BME280;75721;52.330;9.772;2024-01-30T03:06:34;102337.94;;;4.33;99.25
85317;BME280;75721;52.330;9.772;2024-01-30T03:09:00;102350.53;;;4.25;99.93
85317;BME280;75721;52.330;9.772;2024-01-30T03:11:25;102343.91;;;4.26;100.00
85317;BME280;75721;52.330;9.772;2024-01-30T03:13:50;102338.97;;;4.23;99.68
85317;BME280;75721;52.330;9.772;2024-01-30T03:16:16;102339.78;;;4.24;98.88
85317;BME280;75721;52.330;9.772;2024-01-30T03:18:41;102340.00;;;4.27;99.14
85317;BME280;75721;52.330;9.772;2024-01-30T03:21:06;102322.47;;;4.32;99.64
85317;BME280;75721;52.330;9.772;2024-01-30T03:23:32;102322.97;;;4.34;98.59
85317;BME280;75721;52.330;9.772;2024-01-30T03:25:57;102318.66;;;4.28;98.96
85317;BME280;75721;52.330;9.772;2024-01-30T03:28:23;102332.00;;;4.26;98.79
85317;BME280;75721;52.330;9.772;2024-01-30T03:30:48;102327.69;;;4.20;99.74
85317;BME280;75721;52.330;9.772;2024-01-30T03:33:13;102330.44;;;4.20;100.00
85317;BME280;75721;52.330;9.772;2024-01-30T03:35:38;102332.59;;;4.23;99.00
85317;BME280;75721;52.330;9.772;2024-01-30T03:38:04;102333.22;;;4.33;99.00
85317;BME280;75721;52.330;9.772;2024-01-30T03:40:29;102324.81;;;4.38;99.38
85317;BME280;75721;52.330;9.772;2024-01-30T03:42:54;102324.00;;;4.38;99.07
85317;BME280;75721;52.330;9.772;2024-01-30T03:45:20;102330.06;;;4.40;98.75
85317;BME280;75721;52.330;9.772;2024-01-30T03:47:45;102329.75;;;4.41;98.24
85317;BME280;75721;52.330;9.772;2024-01-30T03:50:10;102318.69;;;4.41;97.76
85317;BME280;75721;52.330;9.772;2024-01-30T03:52:36;102323.81;;;4.34;98.74
85317;BME280;75721;52.330;9.772;2024-01-30T03:55:01;102325.75;;;4.20;99.40
85317;BME280;75721;52.330;9.772;2024-01-30T03:57:26;102325.41;;;4.08;99.00
85317;BME280;75721;52.330;9.772;2024-01-30T03:59:52;102326.22;;;4.09;98.84
85317;BME280;75721;52.330;9.772;2024-01-30T04:02:17;102323.75;;;4.07;99.23
85317;BME280;75721;52.330;9.772;2024-01-30T04:04:43;102317.22;;;4.03;99.17
85317;BME280;75721;52.330;9.772;2024-01-30T04:07:08;102323.16;;;4.10;98.94
85317;BME280;75721;52.330;9.772;2024-01-30T04:09:33;102313.13;;;4.14;99.53
85317;BME280;75721;52.330;9.772;2024-01-30T04:11:58;102309.75;;;4.17;98.94
85317;BME280;75721;52.330;9.772;2024-01-30T04:14:24;102311.97;;;4.15;99.19
85317;BME280;75721;52.330;9.772;2024-01-30T04:16:49;102308.38;;;4.01;98.82
85317;BME280;75721;52.330;9.772;2024-01-30T04:19:14;102315.66;;;3.97;99.59
85317;BME280;75721;52.330;9.772;2024-01-30T04:21:39;102305.31;;;3.89;100.00
85317;BME280;75721;52.330;9.772;2024-01-30T04:24:05;102305.47;;;3.79;100.00
85317;BME280;75721;52.330;9.772;2024-01-30T04:26:30;102315.94;;;3.82;100.00
85317;BME280;75721;52.330;9.772;2024-01-30T04:28:55;102305.78;;;3.78;99.49
85317;BME280;75721;52.330;9.772;2024-01-30T04:31:21;102311.00;;;3.79;100.00
85317;BME280;75721;52.330;9.772;2024-01-30T04:33:46;102316.13;;;3.72;100.00
85317;BME280;75721;52.330;9.772;2024-01-30T04:36:11;102319.78;;;3.68;100.00
85317;BME280;75721;52.330;9.772;2024-01-30T04:38:38;102325.00;;;3.69;100.00
85317;BME280;75721;52.330;9.772;2024-01-30T04:41:03;102319.34;;;3.61;100.00
85317;BME280;75721;52.330;9.772;2024-01-30T04:43:29;102320.78;;;3.58;100.00
85317;BME280;75721;52.330;9.772;2024-01-30T04:45:55;102320.88;;;3.53;100.00
85317;BME280;75721;52.330;9.772;2024-01-30T04:48:20;102316.84;;;3.46;100.00
85317;BME280;75721;52.330;9.772;2024-01-30T04:50:45;102322.66;;;3.44;100.00
85317;BME280;75721;52.330;9.772;2024-01-30T04:53:11;102316.22;;;3.35;100.00
85317;BME280;75721;52.330;9.772;2024-01-30T04:55:36;102312.03;;;3.19;100.00
85317;BME280;75721;52.330;9.772;2024-01-30T04:58:01;102325.84;;;3.00;100.00
85317;BME280;75721;52.330;9.772;2024-01-30T05:00:26;102317.25;;;3.02;100.00
85317;BME280;75721;52.330;9.772;2024-01-30T05:02:52;102319.06;;;2.93;100.00
85317;BME280;75721;52.330;9.772;2024-01-30T05:05:17;102315.75;;;2.91;100.00
85317;BME280;75721;52.330;9.772;2024-01-30T05:07:42;102307.34;;;3.01;100.00
85317;BME280;75721;52.330;9.772;2024-01-30T05:10:08;102305.91;;;3.03;100.00
85317;BME280;75721;52.330;9.772;2024-01-30T05:12:33;102309.41;;;3.09;100.00
85317;BME280;75721;52.330;9.772;2024-01-30T05:14:58;102303.22;;;3.17;100.00
85317;BME280;75721;52.330;9.772;2024-01-30T05:17:24;102305.91;;;3.22;100.00
85317;BME280;75721;52.330;9.772;2024-01-30T05:19:49;102304.28;;;3.21;100.00
85317;BME280;75721;52.330;9.772;2024-01-30T05:22:14;102313.84;;;3.10;100.00
85317;BME280;75721;52.330;9.772;2024-01-30T05:24:41;102307.03;;;3.02;100.00
85317;BME280;75721;52.330;9.772;2024-01-30T05:27:10;102311.56;;;3.12;100.00
85317;BME280;75721;52.330;9.772;2024-01-30T05:29:36;102308.91;;;3.07;100.00
85317;BME280;75721;52.330;9.772;2024-01-30T05:32:02;102303.88;;;3.09;100.00
85317;BME280;75721;52.330;9.772;2024-01-30T05:34:27;102311.06;;;3.10;100.00
85317;BME280;75721;52.330;9.772;2024-01-30T05:36:53;102315.47;;;3.11;100.00
85317;BME280;75721;52.330;9.772;2024-01-30T05:39:18;102316.50;;;3.15;100.00
85317;BME280;75721;52.330;9.772;2024-01-30T05:41:43;102307.53;;;3.23;100.00
85317;BME280;75721;52.330;9.772;2024-01-30T05:44:09;102303.88;;;3.28;100.00
85317;BME280;75721;52.330;9.772;2024-01-30T05:46:35;102305.59;;;3.24;100.00
85317;BME280;75721;52.330;9.772;2024-01-30T05:49:00;102300.00;;;3.29;100.00
85317;BME280;75721;52.330;9.772;2024-01-30T05:51:25;102305.34;;;3.39;100.00
85317;BME280;75721;52.330;9.772;2024-01-30T05:53:51;102309.44;;;3.41;100.00
85317;BME280;75721;52.330;9.772;2024-01-30T05:56:16;102312.31;;;3.36;100.00
85317;BME280;75721;52.330;9.772;2024-01-30T05:58:41;102306.19;;;3.39;100.00
85317;BME280;75721;52.330;9.772;2024-01-30T06:01:08;102307.81;;;3.40;100.00
85317;BME280;75721;52.330;9.772;2024-01-30T06:03:34;102300.13;;;3.37;100.00
85317;BME280;75721;52.330;9.772;2024-01-30T06:05:59;102304.56;;;3.38;100.00
85317;BME280;75721;52.330;9.772;2024-01-30T06:08:24;102306.69;;;3.41;100.00
85317;BME280;75721;52.330;9.772;2024-01-30T06:10:50;102312.16;;;3.46;100.00
85317;BME280;75721;52.330;9.772;2024-01-30T06:13:15;102305.78;;;3.46;100.00
85317;BME280;75721;52.330;9.772;2024-01-30T06:15:40;102312.75;;;3.43;100.00
85317;BME280;75721;52.330;9.772;2024-01-30T06:18:06;102306.09;;;3.44;100.00
85317;BME280;75721;52.330;9.772;2024-01-30T06:20:31;102303.91;;;3.41;100.00
85317;BME280;75721;52.330;9.772;2024-01-30T06:22:56;102299.63;;;3.35;100.00
85317;BME280;75721;52.330;9.772;2024-01-30T06:25:21;102296.75;;;3.40;100.00
85317;BME280;75721;52.330;9.772;2024-01-30T06:27:47;102290.72;;;3.38;100.00
85317;BME280;75721;52.330;9.772;2024-01-30T06:30:12;102303.50;;;3.34;100.00
85317;BME280;75721;52.330;9.772;2024-01-30T06:32:37;102288.78;;;3.39;100.00
85317;BME280;75721;52.330;9.772;2024-01-30T06:35:04;102293.06;;;3.31;100.00
85317;BME280;75721;52.330;9.772;2024-01-30T06:37:31;102287.31;;;3.28;100.00
85317;BME280;75721;52.330;9.772;2024-01-30T06:39:56;102284.25;;;3.29;100.00
85317;BME280;75721;52.330;9.772;2024-01-30T06:42:21;102278.50;;;3.26;100.00
85317;BME280;75721;52.330;9.772;2024-01-30T06:44:46;102283.19;;;3.25;100.00
85317;BME280;75721;52.330;9.772;2024-01-30T06:47:13;102284.03;;;3.26;100.00
85317;BME280;75721;52.330;9.772;2024-01-30T06:49:38;102284.63;;;3.23;100.00
85317;BME280;75721;52.330;9.772;2024-01-30T06:52:05;102280.66;;;3.29;100.00
85317;BME280;75721;52.330;9.772;2024-01-30T06:54:30;102279.97;;;3.37;100.00
85317;BME280;75721;52.330;9.772;2024-01-30T06:56:56;102288.13;;;3.28;100.00
85317;BME280;75721;52.330;9.772;2024-01-30T06:59:21;102280.13;;;3.27;100.00
85317;BME280;75721;52.330;9.772;2024-01-30T07:01:46;102277.38;;;3.27;100.00
85317;BME280;75721;52.330;9.772;2024-01-30T07:04:11;102286.69;;;3.31;100.00
85317;BME280;75721;52.330;9.772;2024-01-30T07:06:37;102287.22;;;3.33;100.00
85317;BME280;75721;52.330;9.772;2024-01-30T07:09:02;102283.91;;;3.17;100.00
85317;BME280;75721;52.330;9.772;2024-01-30T07:11:28;102290.00;;;3.33;100.00
85317;BME280;75721;52.330;9.772;2024-01-30T07:13:54;102288.47;;;3.40;100.00
85317;BME280;75721;52.330;9.772;2024-01-30T07:16:19;102279.59;;;3.43;100.00
85317;BME280;75721;52.330;9.772;2024-01-30T07:18:44;102283.69;;;3.46;100.00
85317;BME280;75721;52.330;9.772;2024-01-30T07:21:10;102280.63;;;3.47;100.00
85317;BME280;75721;52.330;9.772;2024-01-30T07:23:35;102281.03;;;3.54;100.00
85317;BME280;75721;52.330;9.772;2024-01-30T07:26:04;102292.19;;;3.49;100.00
85317;BME280;75721;52.330;9.772;2024-01-30T07:28:30;102287.00;;;3.61;100.00
85317;BME280;75721;52.330;9.772;2024-01-30T07:30:55;102283.09;;;3.62;100.00
85317;BME280;75721;52.330;9.772;2024-01-30T07:33:21;102288.03;;;3.65;100.00
85317;BME280;75721;52.330;9.772;2024-01-30T07:35:46;102287.84;;;3.62;100.00
85317;BME280;75721;52.330;9.772;2024-01-30T07:38:11;102285.81;;;3.67;100.00
85317;BME280;75721;52.330;9.772;2024-01-30T07:40:37;102289.91;;;3.70;100.00
85317;BME280;75721;52.330;9.772;2024-01-30T07:43:03;102296.75;;;3.72;100.00
85317;BME280;75721;52.330;9.772;2024-01-30T07:45:29;102295.63;;;3.73;100.00
85317;BME280;75721;52.330;9.772;2024-01-30T07:47:57;102284.38;;;3.83;100.00
85317;BME280;75721;52.330;9.772;2024-01-30T07:50:23;102294.22;;;3.89;100.00
85317;BME280;75721;52.330;9.772;2024-01-30T07:52:48;102291.34;;;3.94;100.00
85317;BME280;75721;52.330;9.772;2024-01-30T07:55:16;102287.91;;;4.02;100.00
85317;BME280;75721;52.330;9.772;2024-01-30T07:57:41;102285.03;;;4.07;100.00
85317;BME280;75721;52.330;9.772;2024-01-30T08:00:08;102289.97;;;4.10;100.00
85317;BME280;75721;52.330;9.772;2024-01-30T08:02:34;102288.75;;;4.16;100.00
85317;BME280;75721;52.330;9.772;2024-01-30T08:04:59;102295.31;;;4.20;100.00
85317;BME280;75721;52.330;9.772;2024-01-30T08:07:24;102287.69;;;4.39;99.47
85317;BME280;75721;52.330;9.772;2024-01-30T08:09:50;102289.94;;;4.51;99.73
85317;BME280;75721;52.330;9.772;2024-01-30T08:12:15;102292.41;;;4.52;99.07
85317;BME280;75721;52.330;9.772;2024-01-30T08:14:41;102288.81;;;4.65;98.62
85317;BME280;75721;52.330;9.772;2024-01-30T08:17:06;102282.94;;;4.80;97.70
85317;BME280;75721;52.330;9.772;2024-01-30T08:19:33;102273.03;;;5.01;96.70
85317;BME280;75721;52.330;9.772;2024-01-30T08:21:58;102278.19;;;5.16;96.84
85317;BME280;75721;52.330;9.772;2024-01-30T08:24:23;102265.72;;;5.27;95.33
85317;BME280;75721;52.330;9.772;2024-01-30T08:26:49;102268.41;;;5.32;95.15
85317;BME280;75721;52.330;9.772;2024-01-30T08:29:14;102265.72;;;5.49;94.60
85317;BME280;75721;52.330;9.772;2024-01-30T08:31:39;102262.53;;;5.56;94.27
85317;BME280;75721;52.330;9.772;2024-01-30T08:34:04;102263.94;;;5.53;95.46
85317;BME280;75721;52.330;9.772;2024-01-30T08:36:30;102264.84;;;5.62;94.68
85317;BME280;75721;52.330;9.772;2024-01-30T08:38:55;102268.16;;;5.73;94.66
85317;BME280;75721;52.330;9.772;2024-01-30T08:41:20;102267.34;;;5.72;93.13
85317;BME280;75721;52.330;9.772;2024-01-30T08:43:45;102271.00;;;5.81;92.84
85317;BME280;75721;52.330;9.772;2024-01-30T08:46:11;102278.38;;;5.86;92.11
85317;BME280;75721;52.330;9.772;2024-01-30T08:48:39;102275.66;;;5.94;92.59
85317;BME280;75721;52.330;9.772;2024-01-30T08:51:05;102275.84;;;5.98;92.24
85317;BME280;75721;52.330;9.772;2024-01-30T08:53:33;102281.72;;;5.96;92.48
85317;BME280;75721;52.330;9.772;2024-01-30T08:55:58;102281.41;;;6.06;91.53
85317;BME280;75721;52.330;9.772;2024-01-30T08:58:24;102272.44;;;6.09;91.42
85317;BME280;75721;52.330;9.772;2024-01-30T09:00:49;102265.81;;;6.19;91.73
85317;BME280;75721;52.330;9.772;2024-01-30T09:03:16;102267.47;;;6.29;91.44
85317;BME280;75721;52.330;9.772;2024-01-30T09:05:45;102267.63;;;6.32;91.16
85317;BME280;75721;52.330;9.772;2024-01-30T09:08:10;102268.16;;;6.34;91.67
85317;BME280;75721;52.330;9.772;2024-01-30T09:10:38;102269.97;;;6.39;90.45
85317;BME280;75721;52.330;9.772;2024-01-30T09:13:03;102264.41;;;6.47;90.31
85317;BME280;75721;52.330;9.772;2024-01-30T09:15:28;102269.00;;;6.52;88.74
85317;BME280;75721;52.330;9.772;2024-01-30T09:17:54;102256.59;;;6.58;88.50
85317;BME280;75721;52.330;9.772;2024-01-30T09:20:19;102264.13;;;6.66;89.06
85317;BME280;75721;52.330;9.772;2024-01-30T09:22:45;102254.00;;;6.70;88.72
85317;BME280;75721;52.330;9.772;2024-01-30T09:25:10;102261.69;;;6.73;89.37
85317;BME280;75721;52.330;9.772;2024-01-30T09:27:36;102256.00;;;6.78;89.20
85317;BME280;75721;52.330;9.772;2024-01-30T09:30:01;102253.56;;;6.85;88.97
85317;BME280;75721;52.330;9.772;2024-01-30T09:32:26;102262.88;;;6.89;88.66
85317;BME280;75721;52.330;9.772;2024-01-30T09:34:52;102261.06;;;7.01;88.00
85317;BME280;75721;52.330;9.772;2024-01-30T09:37:17;102251.09;;;7.09;88.07
85317;BME280;75721;52.330;9.772;2024-01-30T09:39:43;102258.63;;;7.17;88.48
85317;BME280;75721;52.330;9.772;2024-01-30T09:44:50;102251.56;;;7.36;86.57
85317;BME280;75721;52.330;9.772;2024-01-30T09:47:17;102245.50;;;7.43;85.86
85317;BME280;75721;52.330;9.772;2024-01-30T09:49:44;102246.13;;;7.57;86.54
85317;BME280;75721;52.330;9.772;2024-01-30T09:52:10;102264.31;;;7.63;87.04
85317;BME280;75721;52.330;9.772;2024-01-30T09:54:36;102267.22;;;7.66;87.52
85317;BME280;75721;52.330;9.772;2024-01-30T09:57:03;102264.78;;;7.65;85.83
85317;BME280;75721;52.330;9.772;2024-01-30T09:59:28;102267.41;;;7.70;85.87
85317;BME280;75721;52.330;9.772;2024-01-30T10:01:54;102264.41;;;7.75;85.82
85317;BME280;75721;52.330;9.772;2024-01-30T10:04:19;102263.91;;;7.73;85.12
85317;BME280;75721;52.330;9.772;2024-01-30T10:06:44;102263.09;;;7.81;85.70
85317;BME280;75721;52.330;9.772;2024-01-30T10:09:10;102260.13;;;7.86;84.85
85317;BME280;75721;52.330;9.772;2024-01-30T10:11:36;102255.38;;;7.95;85.51
85317;BME280;75721;52.330;9.772;2024-01-30T10:14:02;102247.00;;;7.95;83.89
85317;BME280;75721;52.330;9.772;2024-01-30T10:16:27;102251.22;;;8.01;84.16
85317;BME280;75721;52.330;9.772;2024-01-30T10:18:53;102253.69;;;8.02;84.15
85317;BME280;75721;52.330;9.772;2024-01-30T10:21:18;102244.34;;;8.07;84.18
85317;BME280;75721;52.330;9.772;2024-01-30T10:23:44;102249.06;;;8.06;83.64
85317;BME280;75721;52.330;9.772;2024-01-30T10:26:10;102245.28;;;8.11;83.45
85317;BME280;75721;52.330;9.772;2024-01-30T10:28:35;102231.19;;;8.16;83.40
85317;BME280;75721;52.330;9.772;2024-01-30T10:31:01;102231.47;;;8.31;82.54
85317;BME280;75721;52.330;9.772;2024-01-30T10:33:29;102233.25;;;8.36;84.18
85317;BME280;75721;52.330;9.772;2024-01-30T10:36:00;102221.53;;;8.51;82.88
85317;BME280;75721;52.330;9.772;2024-01-30T10:38:28;102221.59;;;8.63;82.03
85317;BME280;75721;52.330;9.772;2024-01-30T10:40:57;102222.50;;;8.75;81.41
85317;BME280;75721;52.330;9.772;2024-01-30T10:43:24;102226.44;;;8.74;82.28
85317;BME280;75721;52.330;9.772;2024-01-30T10:45:53;102224.38;;;8.63;81.31
85317;BME280;75721;52.330;9.772;2024-01-30T10:48:21;102221.94;;;8.61;81.34
85317;BME280;75721;52.330;9.772;2024-01-30T10:50:50;102222.44;;;8.63;82.25
85317;BME280;75721;52.330;9.772;2024-01-30T10:53:17;102224.00;;;8.73;81.95
85317;BME280;75721;52.330;9.772;2024-01-30T10:55:44;102216.31;;;8.70;81.50
85317;BME280;75721;52.330;9.772;2024-01-30T10:58:12;102226.28;;;8.71;81.59
85317;BME280;75721;52.330;9.772;2024-01-30T11:00:37;102234.59;;;8.79;81.79
85317;BME280;75721;52.330;9.772;2024-01-30T11:03:04;102230.31;;;8.82;82.32
85317;BME280;75721;52.330;9.772;2024-01-30T11:05:30;102237.22;;;8.84;82.25
85317;BME280;75721;52.330;9.772;2024-01-30T11:07:55;102222.66;;;8.79;82.50
85317;BME280;75721;52.330;9.772;2024-01-30T11:10:20;102226.72;;;8.81;82.46
85317;BME280;75721;52.330;9.772;2024-01-30T11:12:46;102221.94;;;8.82;82.16
85317;BME280;75721;52.330;9.772;2024-01-30T11:15:16;102228.91;;;8.76;81.50
85317;BME280;75721;52.330;9.772;2024-01-30T11:20:20;102212.97;;;8.76;82.70
85317;BME280;75721;52.330;9.772;2024-01-30T11:22:47;102214.34;;;8.70;81.99
85317;BME280;75721;52.330;9.772;2024-01-30T11:25:17;102211.69;;;8.74;82.65
85317;BME280;75721;52.330;9.772;2024-01-30T11:27:44;102209.84;;;8.78;83.44
85317;BME280;75721;52.330;9.772;2024-01-30T11:30:10;102215.91;;;8.80;83.08
85317;BME280;75721;52.330;9.772;2024-01-30T11:32:36;102205.72;;;8.84;81.88
85317;BME280;75721;52.330;9.772;2024-01-30T11:35:05;102209.44;;;8.88;83.30
85317;BME280;75721;52.330;9.772;2024-01-30T11:37:31;102204.19;;;8.86;83.27
85317;BME280;75721;52.330;9.772;2024-01-30T11:39:58;102195.38;;;8.84;82.73
85317;BME280;75721;52.330;9.772;2024-01-30T11:42:24;102193.66;;;8.92;82.52
85317;BME280;75721;52.330;9.772;2024-01-30T11:44:52;102192.50;;;8.93;82.98
85317;BME280;75721;52.330;9.772;2024-01-30T11:47:17;102185.09;;;8.97;83.65
85317;BME280;75721;52.330;9.772;2024-01-30T11:49:43;102178.97;;;9.03;82.80
85317;BME280;75721;52.330;9.772;2024-01-30T11:52:09;102185.16;;;9.09;83.02
85317;BME280;75721;52.330;9.772;2024-01-30T11:54:41;102173.09;;;9.17;83.63
85317;BME280;75721;52.330;9.772;2024-01-30T11:57:06;102175.41;;;9.15;82.95
85317;BME280;75721;52.330;9.772;2024-01-30T11:59:31;102178.22;;;9.27;83.43
85317;BME280;75721;52.330;9.772;2024-01-30T12:01:57;102161.31;;;9.44;82.28
85317;BME280;75721;52.330;9.772;2024-01-30T12:04:28;102158.22;;;9.70;82.20
85317;BME280;75721;52.330;9.772;2024-01-30T12:06:54;102149.97;;;9.97;80.18
85317;BME280;75721;52.330;9.772;2024-01-30T12:09:19;102152.34;;;10.07;79.21
85317;BME280;75721;52.330;9.772;2024-01-30T12:11:45;102150.09;;;9.89;78.90
85317;BME280;75721;52.330;9.772;2024-01-30T12:14:12;102144.16;;;10.02;78.43
85317;BME280;75721;52.330;9.772;2024-01-30T12:16:37;102144.97;;;10.51;78.99
85317;BME280;75721;52.330;9.772;2024-01-30T12:19:03;102145.44;;;10.41;77.89
85317;BME280;75721;52.330;9.772;2024-01-30T12:21:29;102136.00;;;10.45;78.88
85317;BME280;75721;52.330;9.772;2024-01-30T12:23:54;102145.31;;;10.37;77.45
85317;BME280;75721;52.330;9.772;2024-01-30T12:26:20;102164.41;;;10.47;77.28
85317;BME280;75721;52.330;9.772;2024-01-30T12:28:49;102167.19;;;10.47;77.63
85317;BME280;75721;52.330;9.772;2024-01-30T12:31:15;102180.84;;;10.25;79.17
85317;BME280;75721;52.330;9.772;2024-01-30T12:33:41;102178.41;;;10.23;78.05
85317;BME280;75721;52.330;9.772;2024-01-30T12:36:06;102176.31;;;10.08;79.56
85317;BME280;75721;52.330;9.772;2024-01-30T12:38:32;102178.25;;;9.96;81.05
85317;BME280;75721;52.330;9.772;2024-01-30T12:40:57;102185.59;;;10.00;81.72
85317;BME280;75721;52.330;9.772;2024-01-30T12:43:26;102181.53;;;9.98;81.75
85317;BME280;75721;52.330;9.772;2024-01-30T12:45:54;102180.22;;;9.95;83.69
85317;BME280;75721;52.330;9.772;2024-01-30T12:48:20;102168.72;;;9.97;81.49
85317;BME280;75721;52.330;9.772;2024-01-30T12:50:45;102179.09;;;9.96;81.11
85317;BME280;75721;52.330;9.772;2024-01-30T12:53:10;102184.66;;;9.96;85.73
85317;BME280;75721;52.330;9.772;2024-01-30T12:55:37;102179.31;;;10.03;81.91
85317;BME280;75721;52.330;9.772;2024-01-30T12:58:03;102181.91;;;10.08;82.89